Stations météo

réclame
Mon MeteoGroup
Tarifa, Espagne (8458): Température de l'air & dewpoint: 13.10.2018 11:00:00 - 19.10.2018 11:00:00 (CEST)Tarifa, Espagne (8458): Vitesse du vent & gusts: 13.10.2018 11:00:00 - 19.10.2018 11:00:00 (CEST)Tarifa, Espagne (8458): Direction du vent: 13.10.2018 11:00:00 - 19.10.2018 11:00:00 (CEST)Tarifa, Espagne (8458): Quantités de précipitations: 13.10.2018 11:00:00 - 19.10.2018 11:00:00 (CEST)
Date & Time tt [°C] td [°C] ff [km/h] ff [knt] fx [km/h] fx [knt] dd rr [mm]
19.10.2018 11:00:00 15,4 10,8 16 9 29 16 NE 0,2
19.10.2018 10:00:00 14,9 10,9 12 7 20 11 NE 0,0
19.10.2018 09:00:00 13,6 10,2 12 6 19 10 NE 0,2
19.10.2018 08:00:00 13,4 10,2 10 5 19 11 NNE -
19.10.2018 07:00:00 13,6 9,7 6 4 31 17 NE 7,4
19.10.2018 06:00:00 15,7 9,8 11 6 27 15 ENE 0,0
19.10.2018 05:00:00 15,6 9,7 13 7 22 12 ENE 0,0
19.10.2018 04:00:00 15,4 9,3 12 6 23 13 ENE 0,0
19.10.2018 03:00:00 15,2 9,9 13 7 19 11 NE 0,1
19.10.2018 02:00:00 15,3 8,3 9 5 18 10 NE -
19.10.2018 01:00:00 15,0 7,6 11 6 15 8 NE 0,0
19.10.2018 00:00:00 14,5 9,3 7 4 11 6 ENE 0,0
18.10.2018 23:00:00 13,1 9,3 6 3 9 5 ENE 0,0
18.10.2018 22:00:00 13,8 9,4 7 4 10 6 NNE 0,0
18.10.2018 21:00:00 15,3 8,9 7 4 21 11 S 0,0
18.10.2018 20:00:00 15,8 9,7 13 7 22 12 S -
18.10.2018 19:00:00 15,1 9,7 9 5 39 21 SSW 1,4
18.10.2018 18:00:00 16,0 8,3 12 6 32 18 NW 0,0
18.10.2018 17:00:00 18,9 8,0 9 5 33 18 SW 0,0
18.10.2018 16:00:00 18,0 7,1 10 6 31 17 W 0,0
18.10.2018 15:00:00 16,6 8,5 12 7 46 25 W 0,2
18.10.2018 14:00:00 18,3 10,4 6 3 17 9 WSW -
18.10.2018 13:00:00 16,8 10,6 10 6 20 11 W 0,0
18.10.2018 12:00:00 15,9 10,9 14 7 24 13 WNW 0,3
18.10.2018 11:00:00 16,7 12,8 7 4 11 6 WSW 0,0
18.10.2018 10:00:00 15,3 11,9 6 3 23 12 N 0,9
18.10.2018 09:00:00 15,5 12,1 2 1 34 18 SW 3,1
18.10.2018 08:00:00 15,6 12,0 19 10 47 26 SSW -
18.10.2018 07:00:00 17,5 13,5 14 8 47 25 S 0,5
18.10.2018 06:00:00 17,5 13,7 14 7 26 14 SSE 0,1
18.10.2018 05:00:00 18,1 13,8 18 10 33 18 S 0,5
18.10.2018 04:00:00 18,5 13,9 11 6 19 10 S 0,0
18.10.2018 03:00:00 - - 10 5 21 12 SSW 0,0
18.10.2018 02:00:00 18,9 14,3 11 6 19 11 SSW -
18.10.2018 01:00:00 19,2 14,2 11 6 18 10 WSW 0,0
18.10.2018 00:00:00 18,5 13,0 4 2 13 7 WNW 0,0
17.10.2018 23:00:00 19,0 13,4 8 4 15 8 NNW 0,0
17.10.2018 22:00:00 19,1 13,5 9 5 14 8 NW 0,0
17.10.2018 21:00:00 19,6 13,6 10 5 18 10 WNW 0,0
17.10.2018 20:00:00 20,1 14,4 12 7 23 12 W -
17.10.2018 19:00:00 20,8 14,2 16 8 26 14 WSW 0,0
17.10.2018 18:00:00 21,2 13,4 16 9 29 16 W 0,0
17.10.2018 17:00:00 21,7 12,8 16 9 30 16 W 0,0
17.10.2018 16:00:00 21,6 13,3 14 8 25 13 WSW 0,0
17.10.2018 15:00:00 21,4 13,1 16 9 24 13 WSW 0,0
17.10.2018 14:00:00 20,7 13,7 16 9 24 13 WSW -
17.10.2018 13:00:00 20,7 13,9 14 8 20 11 WSW 0,0
17.10.2018 12:00:00 20,1 13,8 6 3 13 7 WSW 0,0
17.10.2018 11:00:00 19,3 14,8 5 3 9 5 WSW 0,0
17.10.2018 10:00:00 17,5 14,2 1 0 7 4 N 0,0
17.10.2018 09:00:00 15,0 11,8 6 3 8 4 NNE 0,0
17.10.2018 08:00:00 14,9 11,7 7 4 9 5 NNE -
17.10.2018 07:00:00 15,6 12,3 6 4 8 5 NNE 0,0
17.10.2018 06:00:00 15,9 11,9 6 3 9 5 NNE 0,0
17.10.2018 05:00:00 16,9 12,8 6 3 9 5 ENE 0,0
17.10.2018 04:00:00 16,7 12,6 4 2 9 5 E 0,0
17.10.2018 03:00:00 15,3 11,3 4 2 8 5 NE 0,0
17.10.2018 02:00:00 15,9 10,9 1 1 4 2 N -
17.10.2018 01:00:00 17,0 11,9 3 2 12 7 NNE 0,0
17.10.2018 00:00:00 16,1 12,2 5 3 9 5 NNW 0,0
16.10.2018 23:00:00 16,9 12,8 5 3 6 4 N 0,0
16.10.2018 22:00:00 18,6 14,2 0 0 14 8 NNW 0,0
16.10.2018 21:00:00 19,3 14,5 11 6 23 12 W 0,0
16.10.2018 20:00:00 19,4 13,8 13 7 25 13 W -
16.10.2018 19:00:00 20,1 13,1 15 8 27 15 W 0,0
16.10.2018 18:00:00 20,6 12,0 15 8 29 16 W 0,0
16.10.2018 17:00:00 20,7 11,9 19 11 31 17 WSW 0,0
16.10.2018 16:00:00 20,6 11,6 18 10 29 16 WSW 0,0
16.10.2018 15:00:00 20,7 12,1 16 8 27 15 W 0,0
16.10.2018 14:00:00 20,3 12,3 17 9 25 14 WSW -
16.10.2018 13:00:00 19,5 12,5 21 11 29 15 W 0,0
16.10.2018 12:00:00 19,0 12,5 18 10 25 13 W 0,0
16.10.2018 11:00:00 18,4 12,1 13 7 22 12 W 0,0
16.10.2018 10:00:00 17,9 12,5 10 6 16 8 NW 0,1
16.10.2018 09:00:00 16,9 13,3 5 3 14 8 WNW 0,0
16.10.2018 08:00:00 16,9 13,7 7 4 19 10 NW -
16.10.2018 07:00:00 16,9 13,5 7 4 14 8 NNW 0,0
16.10.2018 06:00:00 17,1 13,9 9 5 14 8 NNW 0,0
16.10.2018 05:00:00 17,0 13,8 11 6 18 10 NNW 0,0
16.10.2018 04:00:00 17,7 13,5 9 5 21 11 NNW 0,5
16.10.2018 03:00:00 18,3 14,4 8 5 31 17 WNW 0,0
16.10.2018 02:00:00 17,6 14,3 23 12 38 20 SW -
16.10.2018 01:00:00 17,6 14,3 23 13 37 20 SW 0,0
16.10.2018 00:00:00 17,2 14,1 19 11 37 20 SSW 1,9
15.10.2018 23:00:00 17,0 13,8 10 5 54 29 W 8,5
15.10.2018 22:00:00 18,3 12,1 31 17 54 29 SW 0,0
15.10.2018 21:00:00 19,4 10,4 27 14 47 25 SW 0,0
15.10.2018 20:00:00 19,2 10,2 24 13 42 23 SSW -
15.10.2018 19:00:00 19,5 8,3 23 12 42 23 SW 0,0
15.10.2018 18:00:00 19,7 7,7 28 15 41 22 SW 0,0
15.10.2018 17:00:00 21,0 7,3 22 12 38 21 SW 0,0
15.10.2018 16:00:00 20,9 7,1 20 11 32 17 SW 0,0
15.10.2018 15:00:00 19,8 6,8 22 12 35 19 WSW 0,0
15.10.2018 14:00:00 19,2 6,7 14 7 24 13 WSW -
15.10.2018 13:00:00 18,6 5,8 14 7 22 12 W 0,0
15.10.2018 12:00:00 18,4 5,3 15 8 23 13 WSW 0,0
15.10.2018 11:00:00 17,7 4,3 15 8 26 14 W 0,0
15.10.2018 10:00:00 16,2 2,9 13 7 27 14 NNW 0,0
15.10.2018 09:00:00 14,9 2,7 16 9 28 15 NNW 0,0
15.10.2018 08:00:00 14,7 3,2 16 9 27 14 NNW -
15.10.2018 07:00:00 14,7 3,2 14 8 26 14 NNW 0,0
15.10.2018 06:00:00 14,8 2,7 12 7 24 13 NNW 0,0
15.10.2018 05:00:00 14,8 3,2 15 8 25 13 N 0,0
15.10.2018 04:00:00 15,8 3,2 14 8 24 13 NNW 0,0
15.10.2018 03:00:00 16,4 2,7 10 5 18 10 NNW 0,0
15.10.2018 02:00:00 17,1 2,7 7 4 14 7 NW -
15.10.2018 01:00:00 16,9 1,7 10 5 13 7 NW 0,0
15.10.2018 00:00:00 17,7 1,7 9 5 18 10 WNW 0,0
14.10.2018 23:00:00 17,9 1,5 12 6 24 13 NW 0,0
14.10.2018 22:00:00 18,3 3,4 13 7 32 17 WNW 0,0
14.10.2018 21:00:00 18,7 4,1 21 11 37 20 W 0,0
14.10.2018 20:00:00 18,7 5,1 23 12 41 22 W -
14.10.2018 19:00:00 19,0 5,5 27 15 49 27 W 0,0
14.10.2018 18:00:00 19,4 5,1 27 15 44 24 W 0,0
14.10.2018 17:00:00 19,7 5,0 29 16 50 27 W 0,0
14.10.2018 16:00:00 18,9 5,6 33 18 50 27 W 0,0
14.10.2018 15:00:00 19,2 5,9 31 17 53 29 W 0,0
14.10.2018 14:00:00 19,8 5,1 22 12 38 20 WNW -
14.10.2018 13:00:00 19,0 10,3 18 10 35 19 WNW 0,0
14.10.2018 12:00:00 17,1 13,1 16 9 32 18 WNW 0,0
14.10.2018 11:00:00 16,3 13,1 10 6 34 19 WNW 0,6
14.10.2018 10:00:00 17,2 13,2 21 11 42 23 WNW 0,1
14.10.2018 09:00:00 18,0 12,6 19 11 35 19 NW 0,0
14.10.2018 08:00:00 19,9 16,1 16 9 39 21 WNW -
14.10.2018 07:00:00 20,3 16,6 6 3 13 7 S 0,0
14.10.2018 06:00:00 20,8 16,6 6 3 11 6 ESE 0,0
14.10.2018 05:00:00 20,7 16,6 8 5 24 13 E 0,0
14.10.2018 04:00:00 20,7 16,1 11 6 42 23 E 0,0
14.10.2018 03:00:00 20,5 16,3 23 12 36 19 ENE 0,0
14.10.2018 02:00:00 20,6 16,6 18 10 45 24 E -
14.10.2018 01:00:00 20,5 16,6 26 14 42 23 E 0,0
14.10.2018 00:00:00 20,6 16,8 26 14 47 25 E 0,0
13.10.2018 23:00:00 20,5 16,7 27 15 54 29 E 0,0
13.10.2018 22:00:00 20,8 16,6 30 16 54 29 E 0,0
13.10.2018 21:00:00 20,8 16,6 30 16 51 28 E 0,0
13.10.2018 20:00:00 21,2 16,4 27 14 49 26 E -
13.10.2018 19:00:00 22,0 15,3 27 15 52 28 E 0,0
13.10.2018 18:00:00 22,4 15,5 32 18 53 29 E 0,0
13.10.2018 17:00:00 22,8 16,1 35 19 56 31 E 0,0
13.10.2018 16:00:00 23,3 15,9 35 19 58 32 E 0,0
13.10.2018 15:00:00 23,7 13,9 35 19 53 29 E 0,0
13.10.2018 14:00:00 - - - - - - - -
13.10.2018 13:00:00 24,0 13,0 35 19 52 28 E 0,0
13.10.2018 12:00:00 23,4 13,0 34 18 56 30 E 0,0
13.10.2018 11:00:00 22,4 13,8 34 19 55 30 E 0,0

tt = Température de l'air
td = dewpoint
ff = Vitesse du vent
fx = gusts
dd = Direction du vent
rr = Quantités de précipitations

stations d'obs. à proximité